sensor_id;sensor_type;location;lat;lon;timestamp;pressure;altitude;pressure_sealevel;temperature;humidity
15529;BME280;7866;52.280;9.500;2023-01-31T00:01:57;100698.06;;;4.58;86.68
15529;BME280;7866;52.280;9.500;2023-01-31T00:06:59;100693.28;;;4.63;86.72
15529;BME280;7866;52.280;9.500;2023-01-31T00:12:02;100713.28;;;4.67;85.74
15529;BME280;7866;52.280;9.500;2023-01-31T00:17:04;100712.41;;;4.66;86.25
15529;BME280;7866;52.280;9.500;2023-01-31T00:22:05;100722.09;;;4.67;86.62
15529;BME280;7866;52.280;9.500;2023-01-31T00:27:08;100709.53;;;4.69;87.27
15529;BME280;7866;52.280;9.500;2023-01-31T00:32:10;100705.91;;;4.70;87.10
15529;BME280;7866;52.280;9.500;2023-01-31T00:37:12;100702.31;;;4.72;87.14
15529;BME280;7866;52.280;9.500;2023-01-31T00:42:15;100702.31;;;4.72;86.75
15529;BME280;7866;52.280;9.500;2023-01-31T00:47:16;100712.06;;;4.71;87.39
15529;BME280;7866;52.280;9.500;2023-01-31T00:52:18;100721.47;;;4.75;87.31
15529;BME280;7866;52.280;9.500;2023-01-31T00:57:21;100727.84;;;4.84;87.08
15529;BME280;7866;52.280;9.500;2023-01-31T01:02:24;100728.56;;;4.75;89.46
15529;BME280;7866;52.280;9.500;2023-01-31T01:07:26;100728.47;;;4.76;89.22
15529;BME280;7866;52.280;9.500;2023-01-31T01:12:29;100736.41;;;4.65;90.06
15529;BME280;7866;52.280;9.500;2023-01-31T01:17:31;100721.72;;;4.72;90.03
15529;BME280;7866;52.280;9.500;2023-01-31T01:22:32;100745.69;;;4.82;88.91
15529;BME280;7866;52.280;9.500;2023-01-31T01:27:35;100749.53;;;4.89;88.05
15529;BME280;7866;52.280;9.500;2023-01-31T01:32:37;100751.22;;;4.90;88.25
15529;BME280;7866;52.280;9.500;2023-01-31T01:37:39;100747.25;;;4.84;88.39
15529;BME280;7866;52.280;9.500;2023-01-31T01:42:42;100756.53;;;4.90;87.89
15529;BME280;7866;52.280;9.500;2023-01-31T01:47:46;100758.72;;;4.85;87.72
15529;BME280;7866;52.280;9.500;2023-01-31T01:52:53;100767.41;;;4.87;86.63
15529;BME280;7866;52.280;9.500;2023-01-31T01:58:02;100773.94;;;4.72;88.25
15529;BME280;7866;52.280;9.500;2023-01-31T02:03:07;100798.88;;;4.58;88.03
15529;BME280;7866;52.280;9.500;2023-01-31T02:08:09;100798.25;;;4.54;88.81
15529;BME280;7866;52.280;9.500;2023-01-31T02:13:12;100787.56;;;4.56;89.29
15529;BME280;7866;52.280;9.500;2023-01-31T02:18:15;100782.13;;;4.57;89.09
15529;BME280;7866;52.280;9.500;2023-01-31T02:23:53;100790.09;;;4.68;89.13
15529;BME280;7866;52.280;9.500;2023-01-31T02:29:30;100774.63;;;4.74;88.91
15529;BME280;7866;52.280;9.500;2023-01-31T02:34:41;100792.50;;;4.72;89.84
15529;BME280;7866;52.280;9.500;2023-01-31T02:39:55;100790.31;;;4.65;89.01
15529;BME280;7866;52.280;9.500;2023-01-31T02:45:05;100789.47;;;4.65;88.55
15529;BME280;7866;52.280;9.500;2023-01-31T02:50:17;100791.41;;;4.63;87.67
15529;BME280;7866;52.280;9.500;2023-01-31T02:55:23;100791.88;;;4.57;88.60
15529;BME280;7866;52.280;9.500;2023-01-31T03:00:46;100791.06;;;4.67;87.98
15529;BME280;7866;52.280;9.500;2023-01-31T03:06:12;100810.34;;;4.69;87.86
15529;BME280;7866;52.280;9.500;2023-01-31T03:11:43;100798.41;;;4.86;85.75
15529;BME280;7866;52.280;9.500;2023-01-31T03:16:52;100798.66;;;4.83;86.01
15529;BME280;7866;52.280;9.500;2023-01-31T03:22:15;100770.41;;;4.82;85.11
15529;BME280;7866;52.280;9.500;2023-01-31T03:27:18;100776.59;;;4.83;85.32
15529;BME280;7866;52.280;9.500;2023-01-31T03:32:24;100766.22;;;4.80;84.59
15529;BME280;7866;52.280;9.500;2023-01-31T03:37:33;100759.56;;;4.74;84.39
15529;BME280;7866;52.280;9.500;2023-01-31T03:42:41;100772.25;;;4.59;85.04
15529;BME280;7866;52.280;9.500;2023-01-31T03:47:48;100762.59;;;4.47;85.45
15529;BME280;7866;52.280;9.500;2023-01-31T03:52:55;100758.50;;;4.43;86.17
15529;BME280;7866;52.280;9.500;2023-01-31T03:57:59;100762.44;;;4.37;86.62
15529;BME280;7866;52.280;9.500;2023-01-31T04:03:08;100752.19;;;4.33;87.29
15529;BME280;7866;52.280;9.500;2023-01-31T04:08:13;100763.53;;;4.46;86.94
15529;BME280;7866;52.280;9.500;2023-01-31T04:13:14;100761.50;;;4.50;87.32
15529;BME280;7866;52.280;9.500;2023-01-31T04:18:16;100755.72;;;4.44;88.47
15529;BME280;7866;52.280;9.500;2023-01-31T04:23:19;100764.75;;;4.42;87.33
15529;BME280;7866;52.280;9.500;2023-01-31T04:28:21;100764.38;;;4.35;88.24
15529;BME280;7866;52.280;9.500;2023-01-31T04:33:22;100761.22;;;4.30;88.50
15529;BME280;7866;52.280;9.500;2023-01-31T04:38:25;100755.19;;;4.17;88.52
15529;BME280;7866;52.280;9.500;2023-01-31T04:43:27;100748.31;;;4.14;87.46
15529;BME280;7866;52.280;9.500;2023-01-31T04:48:29;100751.31;;;4.10;87.38
15529;BME280;7866;52.280;9.500;2023-01-31T04:53:32;100753.47;;;4.05;87.81
15529;BME280;7866;52.280;9.500;2023-01-31T04:58:33;100770.44;;;4.02;87.64
15529;BME280;7866;52.280;9.500;2023-01-31T05:03:35;100761.16;;;3.97;87.82
15529;BME280;7866;52.280;9.500;2023-01-31T05:08:38;100765.66;;;4.07;88.06
15529;BME280;7866;52.280;9.500;2023-01-31T05:13:40;100774.69;;;4.05;88.26
15529;BME280;7866;52.280;9.500;2023-01-31T05:18:42;100761.69;;;4.13;87.67
15529;BME280;7866;52.280;9.500;2023-01-31T05:23:45;100748.56;;;4.11;86.90
15529;BME280;7866;52.280;9.500;2023-01-31T05:28:46;100750.03;;;4.15;86.94
15529;BME280;7866;52.280;9.500;2023-01-31T05:33:48;100746.78;;;4.23;87.65
15529;BME280;7866;52.280;9.500;2023-01-31T05:38:51;100743.16;;;4.24;87.81
15529;BME280;7866;52.280;9.500;2023-01-31T05:43:52;100738.22;;;4.31;87.55
15529;BME280;7866;52.280;9.500;2023-01-31T05:48:54;100740.75;;;4.32;88.32
15529;BME280;7866;52.280;9.500;2023-01-31T05:53:57;100718.44;;;4.35;86.81
15529;BME280;7866;52.280;9.500;2023-01-31T05:58:58;100721.00;;;4.36;86.76
15529;BME280;7866;52.280;9.500;2023-01-31T06:04:02;100703.50;;;4.45;85.87
15529;BME280;7866;52.280;9.500;2023-01-31T06:09:05;100706.91;;;4.47;86.63
15529;BME280;7866;52.280;9.500;2023-01-31T06:14:07;100722.09;;;4.56;85.95
15529;BME280;7866;52.280;9.500;2023-01-31T06:19:08;100713.16;;;4.46;84.91
15529;BME280;7866;52.280;9.500;2023-01-31T06:24:11;100718.59;;;4.56;85.28
15529;BME280;7866;52.280;9.500;2023-01-31T06:29:13;100722.56;;;4.61;84.69
15529;BME280;7866;52.280;9.500;2023-01-31T06:34:15;100711.47;;;4.56;85.42
15529;BME280;7866;52.280;9.500;2023-01-31T06:39:18;100705.31;;;4.67;86.13
15529;BME280;7866;52.280;9.500;2023-01-31T06:44:19;100692.41;;;4.74;86.38
15529;BME280;7866;52.280;9.500;2023-01-31T06:49:21;100699.38;;;4.75;86.63
15529;BME280;7866;52.280;9.500;2023-01-31T06:54:24;100688.88;;;4.84;86.21
15529;BME280;7866;52.280;9.500;2023-01-31T06:59:25;100678.88;;;4.88;86.78
15529;BME280;7866;52.280;9.500;2023-01-31T07:04:27;100680.41;;;4.90;86.79
15529;BME280;7866;52.280;9.500;2023-01-31T07:09:30;100668.84;;;4.91;87.68
15529;BME280;7866;52.280;9.500;2023-01-31T07:14:31;100652.09;;;4.91;88.24
15529;BME280;7866;52.280;9.500;2023-01-31T07:19:33;100631.09;;;4.88;88.17
15529;BME280;7866;52.280;9.500;2023-01-31T07:24:36;100624.34;;;4.95;87.76
15529;BME280;7866;52.280;9.500;2023-01-31T07:29:38;100619.25;;;5.03;87.02
15529;BME280;7866;52.280;9.500;2023-01-31T07:34:39;100608.34;;;5.06;87.50
15529;BME280;7866;52.280;9.500;2023-01-31T07:39:42;100605.88;;;5.14;86.57
15529;BME280;7866;52.280;9.500;2023-01-31T07:44:44;100596.97;;;5.15;87.33
15529;BME280;7866;52.280;9.500;2023-01-31T07:49:45;100590.25;;;5.11;86.55
15529;BME280;7866;52.280;9.500;2023-01-31T07:54:49;100576.44;;;5.17;86.34
15529;BME280;7866;52.280;9.500;2023-01-31T07:59:51;100594.91;;;5.19;86.59
15529;BME280;7866;52.280;9.500;2023-01-31T08:04:53;100583.91;;;5.24;85.80
15529;BME280;7866;52.280;9.500;2023-01-31T08:09:56;100575.59;;;5.38;85.22
15529;BME280;7866;52.280;9.500;2023-01-31T08:14:57;100571.66;;;5.53;85.25
15529;BME280;7866;52.280;9.500;2023-01-31T08:19:59;100548.66;;;5.63;84.13
15529;BME280;7866;52.280;9.500;2023-01-31T08:25:02;100540.50;;;5.55;83.95
15529;BME280;7866;52.280;9.500;2023-01-31T08:30:07;100522.59;;;5.57;83.69
15529;BME280;7866;52.280;9.500;2023-01-31T08:35:08;100513.38;;;5.61;84.28
15529;BME280;7866;52.280;9.500;2023-01-31T08:40:12;100530.22;;;5.72;82.90
15529;BME280;7866;52.280;9.500;2023-01-31T08:45:14;100520.03;;;5.77;83.65
15529;BME280;7866;52.280;9.500;2023-01-31T08:50:16;100516.09;;;5.71;82.75
15529;BME280;7866;52.280;9.500;2023-01-31T08:55:19;100510.97;;;5.89;82.25
15529;BME280;7866;52.280;9.500;2023-01-31T09:00:21;100499.50;;;5.88;82.23
15529;BME280;7866;52.280;9.500;2023-01-31T09:05:23;100484.06;;;6.03;81.94
15529;BME280;7866;52.280;9.500;2023-01-31T09:10:27;100484.47;;;5.99;80.96
15529;BME280;7866;52.280;9.500;2023-01-31T09:15:28;100474.38;;;6.02;81.12
15529;BME280;7866;52.280;9.500;2023-01-31T09:20:30;100483.72;;;5.87;82.26
15529;BME280;7866;52.280;9.500;2023-01-31T09:25:33;100496.38;;;5.74;84.73
15529;BME280;7866;52.280;9.500;2023-01-31T09:30:34;100483.47;;;5.59;87.52
15529;BME280;7866;52.280;9.500;2023-01-31T09:35:36;100464.53;;;5.43;88.33
15529;BME280;7866;52.280;9.500;2023-01-31T09:40:39;100473.84;;;5.37;89.30
15529;BME280;7866;52.280;9.500;2023-01-31T09:45:43;100484.25;;;5.19;91.26
15529;BME280;7866;52.280;9.500;2023-01-31T09:50:49;100460.16;;;5.11;93.35
15529;BME280;7866;52.280;9.500;2023-01-31T09:56:05;100451.63;;;5.08;94.43
15529;BME280;7866;52.280;9.500;2023-01-31T10:01:16;100446.59;;;5.14;94.31
15529;BME280;7866;52.280;9.500;2023-01-31T10:06:21;100430.16;;;5.21;94.30
15529;BME280;7866;52.280;9.500;2023-01-31T10:11:32;100444.47;;;5.29;93.72
15529;BME280;7866;52.280;9.500;2023-01-31T10:16:39;100435.66;;;5.29;93.58
15529;BME280;7866;52.280;9.500;2023-01-31T10:21:48;100419.63;;;5.40;93.10
15529;BME280;7866;52.280;9.500;2023-01-31T10:26:59;100434.50;;;5.52;93.02
15529;BME280;7866;52.280;9.500;2023-01-31T10:32:04;100407.38;;;5.58;91.89
15529;BME280;7866;52.280;9.500;2023-01-31T10:37:11;100396.94;;;5.66;91.27
15529;BME280;7866;52.280;9.500;2023-01-31T10:42:21;100387.00;;;5.68;91.25
15529;BME280;7866;52.280;9.500;2023-01-31T10:47:30;100375.53;;;5.78;90.52
15529;BME280;7866;52.280;9.500;2023-01-31T10:52:48;100382.59;;;5.98;89.33
15529;BME280;7866;52.280;9.500;2023-01-31T10:57:53;100347.28;;;5.86;89.62
15529;BME280;7866;52.280;9.500;2023-01-31T11:02:56;100340.06;;;5.98;89.73
15529;BME280;7866;52.280;9.500;2023-01-31T11:07:58;100316.03;;;6.00;89.08
15529;BME280;7866;52.280;9.500;2023-01-31T11:13:03;100327.22;;;6.03;89.31
15529;BME280;7866;52.280;9.500;2023-01-31T11:18:10;100330.56;;;6.05;88.86
15529;BME280;7866;52.280;9.500;2023-01-31T11:23:21;100286.75;;;6.19;88.07
15529;BME280;7866;52.280;9.500;2023-01-31T11:28:33;100273.34;;;6.01;88.42
15529;BME280;7866;52.280;9.500;2023-01-31T11:33:41;100285.78;;;6.01;88.82
15529;BME280;7866;52.280;9.500;2023-01-31T11:38:45;100301.34;;;5.96;88.57
15529;BME280;7866;52.280;9.500;2023-01-31T11:43:48;100293.34;;;5.96;89.32
15529;BME280;7866;52.280;9.500;2023-01-31T11:48:49;100290.56;;;5.97;89.63
15529;BME280;7866;52.280;9.500;2023-01-31T11:53:51;100277.53;;;5.94;90.34
15529;BME280;7866;52.280;9.500;2023-01-31T11:58:57;100266.50;;;5.99;89.71
15529;BME280;7866;52.280;9.500;2023-01-31T12:04:03;100256.13;;;6.05;89.78
15529;BME280;7866;52.280;9.500;2023-01-31T12:09:18;100240.75;;;5.99;90.10
15529;BME280;7866;52.280;9.500;2023-01-31T12:14:22;100232.91;;;5.98;89.34
15529;BME280;7866;52.280;9.500;2023-01-31T12:19:35;100228.31;;;6.00;90.21
15529;BME280;7866;52.280;9.500;2023-01-31T12:24:47;100226.47;;;6.00;90.32
15529;BME280;7866;52.280;9.500;2023-01-31T12:30:20;100239.63;;;6.02;89.40
15529;BME280;7866;52.280;9.500;2023-01-31T12:35:34;100234.59;;;5.99;90.20
15529;BME280;7866;52.280;9.500;2023-01-31T12:40:44;100238.53;;;5.95;90.08
15529;BME280;7866;52.280;9.500;2023-01-31T12:46:00;100231.50;;;5.93;91.00
15529;BME280;7866;52.280;9.500;2023-01-31T12:51:19;100247.63;;;5.92;91.45
15529;BME280;7866;52.280;9.500;2023-01-31T12:56:45;100266.47;;;5.89;92.07
15529;BME280;7866;52.280;9.500;2023-01-31T13:01:56;100257.09;;;5.85;92.65
15529;BME280;7866;52.280;9.500;2023-01-31T13:07:04;100249.41;;;5.82;93.23
15529;BME280;7866;52.280;9.500;2023-01-31T13:12:10;100259.19;;;5.81;95.09
15529;BME280;7866;52.280;9.500;2023-01-31T13:17:17;100249.97;;;5.76;96.19
15529;BME280;7866;52.280;9.500;2023-01-31T13:22:27;100257.53;;;5.80;97.34
15529;BME280;7866;52.280;9.500;2023-01-31T13:27:32;100246.06;;;5.80;97.73
15529;BME280;7866;52.280;9.500;2023-01-31T13:32:40;100248.00;;;5.78;98.76
15529;BME280;7866;52.280;9.500;2023-01-31T13:37:48;100257.66;;;5.79;98.60
15529;BME280;7866;52.280;9.500;2023-01-31T13:42:54;100236.81;;;5.74;99.51
15529;BME280;7866;52.280;9.500;2023-01-31T13:48:01;100233.75;;;5.79;99.26
15529;BME280;7866;52.280;9.500;2023-01-31T13:53:11;100233.59;;;5.80;99.87
15529;BME280;7866;52.280;9.500;2023-01-31T13:58:18;100227.56;;;5.78;100.00
15529;BME280;7866;52.280;9.500;2023-01-31T14:03:24;100206.03;;;5.81;100.00
15529;BME280;7866;52.280;9.500;2023-01-31T14:08:29;100225.59;;;5.90;100.00
15529;BME280;7866;52.280;9.500;2023-01-31T14:13:40;100218.50;;;5.90;99.26
15529;BME280;7866;52.280;9.500;2023-01-31T14:18:44;100218.66;;;5.99;99.78
15529;BME280;7866;52.280;9.500;2023-01-31T14:23:46;100211.38;;;6.01;98.82
15529;BME280;7866;52.280;9.500;2023-01-31T14:28:49;100208.00;;;6.08;98.54
15529;BME280;7866;52.280;9.500;2023-01-31T14:33:53;100222.69;;;6.12;97.97
15529;BME280;7866;52.280;9.500;2023-01-31T14:39:28;100222.94;;;6.19;97.66
15529;BME280;7866;52.280;9.500;2023-01-31T14:44:48;100211.72;;;6.25;97.16
15529;BME280;7866;52.280;9.500;2023-01-31T14:55:41;100221.38;;;6.26;97.70
15529;BME280;7866;52.280;9.500;2023-01-31T15:00:50;100215.47;;;6.32;96.60
15529;BME280;7866;52.280;9.500;2023-01-31T15:06:06;100212.81;;;6.32;97.67
15529;BME280;7866;52.280;9.500;2023-01-31T15:11:16;100230.72;;;6.30;97.72
15529;BME280;7866;52.280;9.500;2023-01-31T15:16:35;100225.84;;;6.35;99.18
15529;BME280;7866;52.280;9.500;2023-01-31T15:21:43;100234.22;;;6.40;98.42
15529;BME280;7866;52.280;9.500;2023-01-31T15:26:47;100228.63;;;6.44;99.00
15529;BME280;7866;52.280;9.500;2023-01-31T15:31:52;100244.13;;;6.48;98.53
15529;BME280;7866;52.280;9.500;2023-01-31T15:37:03;100224.28;;;6.43;99.36
15529;BME280;7866;52.280;9.500;2023-01-31T15:42:20;100210.13;;;6.42;99.99
15529;BME280;7866;52.280;9.500;2023-01-31T15:47:22;100194.16;;;6.42;100.00
15529;BME280;7866;52.280;9.500;2023-01-31T15:52:25;100190.22;;;6.46;100.00
15529;BME280;7866;52.280;9.500;2023-01-31T15:57:36;100219.91;;;6.51;100.00
15529;BME280;7866;52.280;9.500;2023-01-31T16:02:39;100231.66;;;6.58;100.00
15529;BME280;7866;52.280;9.500;2023-01-31T16:07:45;100220.25;;;6.66;99.65
15529;BME280;7866;52.280;9.500;2023-01-31T16:12:48;100200.66;;;6.67;98.38
15529;BME280;7866;52.280;9.500;2023-01-31T16:17:52;100212.34;;;6.74;98.59
15529;BME280;7866;52.280;9.500;2023-01-31T16:22:56;100212.50;;;6.82;97.81
15529;BME280;7866;52.280;9.500;2023-01-31T16:27:57;100204.88;;;6.87;97.27
15529;BME280;7866;52.280;9.500;2023-01-31T16:33:01;100247.72;;;6.94;96.18
15529;BME280;7866;52.280;9.500;2023-01-31T16:38:13;100235.38;;;6.93;96.53
15529;BME280;7866;52.280;9.500;2023-01-31T16:43:19;100241.72;;;6.92;97.18
15529;BME280;7866;52.280;9.500;2023-01-31T16:48:24;100245.72;;;6.78;95.48
15529;BME280;7866;52.280;9.500;2023-01-31T16:53:29;100248.31;;;6.88;94.97
15529;BME280;7866;52.280;9.500;2023-01-31T16:58:43;100267.63;;;6.90;95.59
15529;BME280;7866;52.280;9.500;2023-01-31T17:09:00;100254.31;;;6.90;96.84
15529;BME280;7866;52.280;9.500;2023-01-31T17:14:02;100258.81;;;6.89;95.98
15529;BME280;7866;52.280;9.500;2023-01-31T17:19:04;100257.69;;;6.92;95.40
15529;BME280;7866;52.280;9.500;2023-01-31T17:29:12;100255.75;;;6.84;95.29
15529;BME280;7866;52.280;9.500;2023-01-31T17:34:15;100258.03;;;6.79;95.02
15529;BME280;7866;52.280;9.500;2023-01-31T17:39:16;100244.84;;;6.78;92.65
15529;BME280;7866;52.280;9.500;2023-01-31T17:44:19;100262.81;;;6.76;92.57
15529;BME280;7866;52.280;9.500;2023-01-31T17:49:21;100260.09;;;6.85;91.06
15529;BME280;7866;52.280;9.500;2023-01-31T17:54:23;100255.50;;;6.78;91.24
15529;BME280;7866;52.280;9.500;2023-01-31T17:59:26;100247.81;;;6.75;90.50
15529;BME280;7866;52.280;9.500;2023-01-31T18:04:28;100267.28;;;6.75;91.08
15529;BME280;7866;52.280;9.500;2023-01-31T18:09:29;100256.34;;;6.78;91.16
15529;BME280;7866;52.280;9.500;2023-01-31T18:14:32;100247.47;;;6.87;90.39
15529;BME280;7866;52.280;9.500;2023-01-31T18:19:34;100225.78;;;6.82;90.33
15529;BME280;7866;52.280;9.500;2023-01-31T18:24:36;100250.59;;;6.83;89.40
15529;BME280;7866;52.280;9.500;2023-01-31T18:29:39;100263.91;;;6.83;88.75
15529;BME280;7866;52.280;9.500;2023-01-31T18:34:40;100281.25;;;6.87;88.49
15529;BME280;7866;52.280;9.500;2023-01-31T18:39:42;100285.97;;;6.93;87.23
15529;BME280;7866;52.280;9.500;2023-01-31T18:44:45;100272.63;;;7.03;86.45
15529;BME280;7866;52.280;9.500;2023-01-31T18:49:47;100274.28;;;7.04;85.85
15529;BME280;7866;52.280;9.500;2023-01-31T18:54:48;100266.75;;;6.99;85.05
15529;BME280;7866;52.280;9.500;2023-01-31T18:59:53;100299.16;;;6.95;85.08
15529;BME280;7866;52.280;9.500;2023-01-31T19:04:54;100295.06;;;7.00;83.82
15529;BME280;7866;52.280;9.500;2023-01-31T19:09:57;100289.47;;;6.94;82.93
15529;BME280;7866;52.280;9.500;2023-01-31T19:15:00;100302.38;;;6.88;81.60
15529;BME280;7866;52.280;9.500;2023-01-31T19:20:02;100297.06;;;6.88;82.30
15529;BME280;7866;52.280;9.500;2023-01-31T19:25:04;100307.75;;;6.79;81.12
15529;BME280;7866;52.280;9.500;2023-01-31T19:30:11;100310.53;;;6.87;81.68
15529;BME280;7866;52.280;9.500;2023-01-31T19:35:12;100295.03;;;6.73;81.48
15529;BME280;7866;52.280;9.500;2023-01-31T19:40:14;100308.47;;;6.71;81.76
15529;BME280;7866;52.280;9.500;2023-01-31T19:45:18;100307.34;;;6.74;81.38
15529;BME280;7866;52.280;9.500;2023-01-31T19:50:19;100314.53;;;6.63;81.58
15529;BME280;7866;52.280;9.500;2023-01-31T19:55:21;100334.44;;;6.59;80.77
15529;BME280;7866;52.280;9.500;2023-01-31T20:00:24;100339.06;;;6.48;81.85
15529;BME280;7866;52.280;9.500;2023-01-31T20:05:25;100359.63;;;6.46;81.51
15529;BME280;7866;52.280;9.500;2023-01-31T20:10:27;100353.22;;;6.38;81.09
15529;BME280;7866;52.280;9.500;2023-01-31T20:15:32;100348.63;;;6.31;80.82
15529;BME280;7866;52.280;9.500;2023-01-31T20:20:34;100337.25;;;6.29;81.49
15529;BME280;7866;52.280;9.500;2023-01-31T20:25:36;100355.06;;;6.19;81.93
15529;BME280;7866;52.280;9.500;2023-01-31T20:30:39;100350.72;;;6.08;81.39
15529;BME280;7866;52.280;9.500;2023-01-31T20:35:41;100349.88;;;6.07;81.45
15529;BME280;7866;52.280;9.500;2023-01-31T20:40:48;100347.50;;;6.04;81.49
15529;BME280;7866;52.280;9.500;2023-01-31T20:45:51;100345.09;;;6.01;80.74
15529;BME280;7866;52.280;9.500;2023-01-31T20:50:53;100340.50;;;6.03;80.27
15529;BME280;7866;52.280;9.500;2023-01-31T20:55:56;100331.53;;;6.04;80.04
15529;BME280;7866;52.280;9.500;2023-01-31T21:01:00;100341.06;;;5.97;80.05
15529;BME280;7866;52.280;9.500;2023-01-31T21:06:03;100337.97;;;5.92;79.90
15529;BME280;7866;52.280;9.500;2023-01-31T21:11:07;100342.53;;;5.90;79.29
15529;BME280;7866;52.280;9.500;2023-01-31T21:16:10;100342.88;;;5.97;79.19
15529;BME280;7866;52.280;9.500;2023-01-31T21:21:18;100338.41;;;5.97;78.35
15529;BME280;7866;52.280;9.500;2023-01-31T21:26:23;100333.50;;;6.02;77.83
15529;BME280;7866;52.280;9.500;2023-01-31T21:31:26;100344.44;;;5.99;78.46
15529;BME280;7866;52.280;9.500;2023-01-31T21:36:28;100340.50;;;5.93;77.45
15529;BME280;7866;52.280;9.500;2023-01-31T21:41:29;100340.16;;;5.77;78.29
15529;BME280;7866;52.280;9.500;2023-01-31T21:46:50;100331.63;;;5.74;78.88
15529;BME280;7866;52.280;9.500;2023-01-31T21:51:52;100336.94;;;5.74;79.05
15529;BME280;7866;52.280;9.500;2023-01-31T21:56:53;100328.00;;;5.75;79.54
15529;BME280;7866;52.280;9.500;2023-01-31T22:01:56;100329.97;;;5.73;79.05
15529;BME280;7866;52.280;9.500;2023-01-31T22:06:58;100323.94;;;5.80;78.72
15529;BME280;7866;52.280;9.500;2023-01-31T22:12:00;100334.84;;;5.77;78.42
15529;BME280;7866;52.280;9.500;2023-01-31T22:17:03;100335.84;;;5.66;78.32
15529;BME280;7866;52.280;9.500;2023-01-31T22:22:04;100345.47;;;5.67;78.91
15529;BME280;7866;52.280;9.500;2023-01-31T22:27:06;100345.06;;;5.72;79.25
15529;BME280;7866;52.280;9.500;2023-01-31T22:32:09;100333.34;;;5.75;79.27
15529;BME280;7866;52.280;9.500;2023-01-31T22:37:10;100338.66;;;5.75;77.59
15529;BME280;7866;52.280;9.500;2023-01-31T22:42:12;100343.34;;;5.61;78.69
15529;BME280;7866;52.280;9.500;2023-01-31T22:47:15;100329.09;;;5.62;78.06
15529;BME280;7866;52.280;9.500;2023-01-31T22:52:17;100345.31;;;5.59;78.34
15529;BME280;7866;52.280;9.500;2023-01-31T22:57:18;100332.88;;;5.60;77.14
15529;BME280;7866;52.280;9.500;2023-01-31T23:02:21;100331.63;;;5.64;77.80
15529;BME280;7866;52.280;9.500;2023-01-31T23:07:23;100324.06;;;5.59;77.61
15529;BME280;7866;52.280;9.500;2023-01-31T23:12:25;100321.38;;;5.40;77.66
15529;BME280;7866;52.280;9.500;2023-01-31T23:17:28;100326.00;;;5.48;77.69
15529;BME280;7866;52.280;9.500;2023-01-31T23:22:39;100320.25;;;5.42;78.66
15529;BME280;7866;52.280;9.500;2023-01-31T23:27:41;100314.50;;;5.37;79.23
15529;BME280;7866;52.280;9.500;2023-01-31T23:32:44;100321.69;;;5.47;79.54
15529;BME280;7866;52.280;9.500;2023-01-31T23:37:46;100312.72;;;5.48;79.16
15529;BME280;7866;52.280;9.500;2023-01-31T23:42:47;100317.44;;;5.34;80.29
15529;BME280;7866;52.280;9.500;2023-01-31T23:47:50;100304.88;;;5.36;79.79
15529;BME280;7866;52.280;9.500;2023-01-31T23:52:53;100297.88;;;5.35;79.73
15529;BME280;7866;52.280;9.500;2023-01-31T23:57:54;100305.84;;;5.35;79.85
